Time;durP1;ratioP1;P1;durP2;ratioP2;P2;SDS_P1;SDS_P2;PMS_P1;PMS_P2;Temp;Humidity;BMP_temperature;BMP_pressure;BME280_temperature;BME280_humidity;BME280_pressure;Samples;Min_cycle;Max_cycle;Signal;HPM_P1;HPM_P2
2023/07/22 00:00:09;;;;;;;4.00;2.37;;;14.10;99.90;;;;;;4921131;29;20482;-70
2023/07/22 00:02:35;;;;;;;2.07;1.83;;;14.10;99.90;;;;;;4908949;29;20926;-71
2023/07/22 00:05:03;;;;;;;1.57;1.57;;;14.10;99.90;;;;;;4911818;29;20537;-70
2023/07/22 00:07:30;;;;;;;1.47;1.47;;;14.10;99.90;;;;;;4913314;29;20819;-71
2023/07/22 00:09:57;;;;;;;2.53;2.33;;;14.10;99.90;;;;;;4913472;29;20577;-69
2023/07/22 00:12:25;;;;;;;2.93;2.83;;;14.10;99.90;;;;;;4913931;29;20498;-70
2023/07/22 00:14:53;;;;;;;2.83;1.80;;;14.20;99.90;;;;;;4900346;29;20555;-68
2023/07/22 00:17:20;;;;;;;1.87;1.70;;;14.20;99.90;;;;;;4904078;29;20573;-70
2023/07/22 00:19:47;;;;;;;2.03;1.93;;;14.20;99.90;;;;;;4903283;29;20517;-69
2023/07/22 00:22:14;;;;;;;1.73;1.73;;;14.30;99.90;;;;;;4904810;29;21020;-70
2023/07/22 00:24:41;;;;;;;1.60;1.50;;;14.20;99.90;;;;;;4900866;29;20471;-69
2023/07/22 00:27:08;;;;;;;2.50;2.40;;;14.20;99.90;;;;;;4902318;29;20486;-69
2023/07/22 00:29:35;;;;;;;2.10;1.93;;;14.20;99.90;;;;;;4894909;29;21313;-69
2023/07/22 00:32:03;;;;;;;5.53;2.30;;;14.20;99.90;;;;;;4896967;29;20570;-69
2023/07/22 00:34:30;;;;;;;2.40;2.23;;;14.20;99.90;;;;;;4901388;29;20475;-69
2023/07/22 00:36:56;;;;;;;1.80;1.70;;;14.20;99.90;;;;;;4902125;29;20475;-69
2023/07/22 00:39:23;;;;;;;2.53;2.33;;;14.20;99.90;;;;;;4899311;29;20490;-70
2023/07/22 00:41:50;;;;;;;1.80;1.70;;;14.20;99.90;;;;;;4904767;29;20807;-70
2023/07/22 00:44:17;;;;;;;2.23;2.10;;;14.20;99.90;;;;;;4900704;29;20474;-69
2023/07/22 00:46:44;;;;;;;2.63;2.53;;;14.20;99.90;;;;;;4899986;29;20870;-70
2023/07/22 00:49:15;;;;;;;3.23;3.03;;;14.20;99.90;;;;;;4899043;29;20531;-69
2023/07/22 00:51:42;;;;;;;4.20;1.77;;;14.20;99.90;;;;;;4901613;29;21047;-70
2023/07/22 00:54:09;;;;;;;1.40;1.40;;;14.20;99.90;;;;;;4904456;29;20478;-70
2023/07/22 00:56:37;;;;;;;8.27;2.40;;;14.10;99.90;;;;;;4905931;29;20478;-69
2023/07/22 00:59:05;;;;;;;4.53;3.40;;;14.10;99.90;;;;;;4896406;29;20582;-68
2023/07/22 01:01:32;;;;;;;2.77;2.57;;;14.10;99.90;;;;;;4901447;29;20510;-69
2023/07/22 01:04:00;;;;;;;2.70;2.60;;;14.00;99.90;;;;;;4901241;29;20890;-71
2023/07/22 01:06:30;;;;;;;2.27;2.17;;;14.10;99.90;;;;;;4900300;29;20494;-71
2023/07/22 01:08:58;;;;;;;2.17;2.00;;;14.00;99.90;;;;;;4898837;29;20474;-70
2023/07/22 01:11:25;;;;;;;2.80;2.60;;;14.10;99.90;;;;;;4899048;29;20613;-71
2023/07/22 01:13:57;;;;;;;1.70;1.60;;;14.00;99.90;;;;;;4906909;29;20585;-70
2023/07/22 01:16:25;;;;;;;2.70;2.60;;;14.00;99.90;;;;;;4909038;29;20569;-71
2023/07/22 01:18:52;;;;;;;3.60;2.50;;;14.00;99.90;;;;;;4909922;29;20465;-71
2023/07/22 01:21:20;;;;;;;4.43;1.80;;;13.90;99.90;;;;;;4907424;29;20474;-71
2023/07/22 01:23:48;;;;;;;2.37;2.37;;;13.90;99.90;;;;;;4904735;29;20483;-70
2023/07/22 01:26:15;;;;;;;3.20;2.93;;;13.90;99.90;;;;;;4902114;29;20493;-69
2023/07/22 01:28:42;;;;;;;4.47;4.17;;;13.80;99.90;;;;;;4903405;29;20463;-71
2023/07/22 01:31:09;;;;;;;3.23;2.67;;;13.80;99.90;;;;;;4895801;29;20468;-71
2023/07/22 01:33:35;;;;;;;2.80;2.63;;;13.80;99.90;;;;;;4901771;29;21615;-71
2023/07/22 01:36:02;;;;;;;5.93;1.97;;;13.70;99.90;;;;;;4901511;29;20458;-70
2023/07/22 01:38:31;;;;;;;2.00;1.90;;;13.70;99.90;;;;;;4902379;29;20474;-71
2023/07/22 01:40:59;;;;;;;2.20;1.70;;;13.70;99.90;;;;;;4902090;29;20483;-71
2023/07/22 01:43:25;;;;;;;4.37;3.20;;;13.70;99.90;;;;;;4901273;29;20494;-71
2023/07/22 01:45:53;;;;;;;2.87;2.63;;;13.60;99.90;;;;;;4902573;29;20478;-72
2023/07/22 01:48:19;;;;;;;4.10;3.50;;;13.60;99.90;;;;;;4903608;29;20495;-71
2023/07/22 01:50:47;;;;;;;2.45;2.20;;;13.60;99.90;;;;;;4910191;29;20479;-71
2023/07/22 01:53:14;;;;;;;5.83;4.37;;;13.60;99.90;;;;;;4901130;29;20362;-71
2023/07/22 01:55:40;;;;;;;2.50;2.40;;;13.60;99.90;;;;;;4912795;29;20991;-71
2023/07/22 01:58:08;;;;;;;3.20;3.07;;;13.50;99.90;;;;;;4911146;29;20851;-71
2023/07/22 02:00:35;;;;;;;3.87;3.67;;;13.50;99.90;;;;;;4906513;29;20479;-71
2023/07/22 02:03:02;;;;;;;3.40;3.20;;;13.50;99.90;;;;;;4899786;29;20534;-70
2023/07/22 02:05:30;;;;;;;4.87;3.40;;;13.50;99.90;;;;;;4901138;29;22420;-71
2023/07/22 02:07:57;;;;;;;2.80;2.60;;;13.40;99.90;;;;;;4901118;29;20486;-71
2023/07/22 02:10:24;;;;;;;3.20;3.00;;;13.40;99.90;;;;;;4908761;29;20515;-71
2023/07/22 02:12:50;;;;;;;2.20;2.03;;;13.40;99.90;;;;;;4915781;29;20701;-71
2023/07/22 02:15:21;;;;;;;4.23;4.03;;;13.40;99.90;;;;;;4902152;29;20478;-72
2023/07/22 02:17:48;;;;;;;5.28;3.75;;;13.30;99.90;;;;;;4908822;29;20803;-72
2023/07/22 02:20:15;;;;;;;6.78;3.97;;;13.30;99.90;;;;;;4904980;29;20214;-71
2023/07/22 02:22:41;;;;;;;4.33;2.70;;;13.30;99.90;;;;;;4907533;29;20239;-71
2023/07/22 02:25:10;;;;;;;3.97;3.53;;;13.30;99.90;;;;;;4908732;29;20485;-72
2023/07/22 02:27:37;;;;;;;4.33;3.83;;;13.30;99.90;;;;;;4911597;29;20499;-70
2023/07/22 02:30:04;;;;;;;3.70;3.00;;;13.30;99.90;;;;;;4910288;29;20481;-71
2023/07/22 02:32:32;;;;;;;1.93;1.83;;;13.20;99.90;;;;;;4911053;29;20494;-71
2023/07/22 02:34:59;;;;;;;4.07;3.70;;;13.30;99.90;;;;;;4921935;29;20964;-71
2023/07/22 02:37:26;;;;;;;3.55;3.20;;;13.20;99.90;;;;;;4909883;29;20783;-72
2023/07/22 02:39:54;;;;;;;4.05;3.75;;;13.30;99.90;;;;;;4909951;29;20221;-72
2023/07/22 02:42:21;;;;;;;4.47;4.13;;;13.20;99.90;;;;;;4912044;29;20701;-71
2023/07/22 02:44:48;;;;;;;10.25;4.28;;;13.20;99.90;;;;;;4911743;29;20478;-71
2023/07/22 02:47:15;;;;;;;3.08;2.78;;;13.20;99.90;;;;;;4908314;29;20754;-70
2023/07/22 02:49:43;;;;;;;5.00;4.60;;;13.20;99.90;;;;;;4924699;29;20232;-72
2023/07/22 02:52:10;;;;;;;5.15;4.75;;;13.10;99.90;;;;;;4913368;29;20577;-72
2023/07/22 02:54:41;;;;;;;3.33;2.40;;;13.10;99.90;;;;;;4921288;29;20219;-71
2023/07/22 02:57:07;;;;;;;6.53;3.72;;;13.10;99.90;;;;;;4922004;29;20640;-69
2023/07/22 02:59:34;;;;;;;11.27;4.57;;;13.10;99.90;;;;;;4917484;29;20218;-71
2023/07/22 03:02:01;;;;;;;4.55;4.18;;;13.00;99.90;;;;;;4911635;29;20250;-72
2023/07/22 03:04:27;;;;;;;13.38;4.15;;;13.00;99.90;;;;;;4900169;29;20650;-71
2023/07/22 03:06:56;;;;;;;3.70;2.73;;;13.00;99.90;;;;;;4894527;29;20226;-72
2023/07/22 03:09:22;;;;;;;3.60;3.30;;;13.00;99.90;;;;;;4899285;29;20470;-70
2023/07/22 03:11:49;;;;;;;3.30;3.00;;;13.00;99.90;;;;;;4897801;29;20226;-73
2023/07/22 03:14:16;;;;;;;5.40;4.90;;;13.00;99.90;;;;;;4901316;29;20207;-70
2023/07/22 03:16:43;;;;;;;5.65;2.58;;;13.00;99.90;;;;;;4897092;29;20291;-71
2023/07/22 03:19:10;;;;;;;3.27;2.97;;;13.00;99.90;;;;;;4897475;29;20226;-68
2023/07/22 03:21:37;;;;;;;2.50;2.40;;;12.90;99.90;;;;;;4899280;29;20497;-70
2023/07/22 03:24:05;;;;;;;9.02;3.38;;;13.00;99.90;;;;;;4896036;29;20470;-70
2023/07/22 03:26:32;;;;;;;7.13;3.25;;;12.90;99.90;;;;;;4897570;29;20650;-71
2023/07/22 03:28:59;;;;;;;4.53;4.07;;;12.90;99.90;;;;;;4902863;29;20214;-71
2023/07/22 03:31:25;;;;;;;3.50;3.20;;;12.90;99.90;;;;;;4898962;29;21028;-70
2023/07/22 03:33:52;;;;;;;5.55;3.65;;;12.90;99.90;;;;;;4909616;29;20203;-70
2023/07/22 03:36:19;;;;;;;3.50;3.17;;;12.90;99.90;;;;;;4906494;29;20222;-71
2023/07/22 03:38:46;;;;;;;6.87;3.10;;;12.90;99.90;;;;;;4903142;29;20212;-70
2023/07/22 03:41:14;;;;;;;5.32;3.15;;;12.90;99.90;;;;;;4928087;23;21049;-68
2023/07/22 03:43:41;;;;;;;7.65;4.07;;;12.90;99.90;;;;;;4920827;29;20211;-67
2023/07/22 03:46:08;;;;;;;2.30;2.20;;;12.90;99.90;;;;;;4925868;29;20206;-68
2023/07/22 03:48:35;;;;;;;6.53;3.83;;;12.90;99.90;;;;;;4901609;29;20498;-68
2023/07/22 03:51:02;;;;;;;3.40;3.20;;;12.80;99.90;;;;;;4898195;29;20294;-68
2023/07/22 03:53:28;;;;;;;3.77;3.47;;;12.90;99.90;;;;;;4890970;29;20212;-67
2023/07/22 03:55:55;;;;;;;6.57;5.77;;;12.90;99.90;;;;;;4902882;29;20466;-68
2023/07/22 03:58:23;;;;;;;3.58;3.35;;;12.90;99.90;;;;;;4908699;29;20474;-68
2023/07/22 04:00:50;;;;;;;6.60;4.80;;;12.90;99.90;;;;;;4896573;29;20234;-68
2023/07/22 04:03:17;;;;;;;11.90;3.67;;;12.90;99.90;;;;;;4901152;29;20577;-68
2023/07/22 04:05:44;;;;;;;3.70;3.50;;;12.90;99.90;;;;;;4898085;29;20259;-68
2023/07/22 04:08:10;;;;;;;4.43;4.13;;;12.90;99.90;;;;;;4896305;29;20525;-68
2023/07/22 04:10:37;;;;;;;5.68;4.68;;;13.00;99.90;;;;;;4895563;29;20633;-68
2023/07/22 04:13:04;;;;;;;6.10;4.53;;;13.00;99.90;;;;;;4897312;29;20257;-67
2023/07/22 04:15:32;;;;;;;3.38;2.50;;;13.00;99.90;;;;;;4906523;29;20485;-67
2023/07/22 04:17:59;;;;;;;5.73;4.40;;;13.00;99.90;;;;;;4896022;29;20208;-69
2023/07/22 04:20:26;;;;;;;6.13;4.57;;;13.10;99.90;;;;;;4900651;29;20498;-67
2023/07/22 04:22:52;;;;;;;3.67;3.10;;;13.10;99.90;;;;;;4905799;29;20478;-68
2023/07/22 04:25:20;;;;;;;6.53;4.10;;;13.20;99.90;;;;;;4907987;29;20474;-68
2023/07/22 04:27:46;;;;;;;6.93;3.57;;;13.20;99.90;;;;;;4900200;29;20574;-68
2023/07/22 04:30:19;;;;;;;5.33;3.80;;;13.20;99.90;;;;;;4899562;29;20494;-68
2023/07/22 04:32:48;;;;;;;4.60;4.20;;;13.20;99.90;;;;;;4898785;29;20476;-69
2023/07/22 04:35:17;;;;;;;7.57;3.40;;;13.30;99.90;;;;;;4905541;29;20807;-68
2023/07/22 04:37:43;;;;;;;12.83;6.33;;;13.40;99.90;;;;;;4904075;29;20904;-68
2023/07/22 04:40:14;;;;;;;5.13;4.50;;;13.80;99.90;;;;;;4896760;29;20512;-69
2023/07/22 04:42:41;;;;;;;6.93;4.43;;;14.00;99.90;;;;;;4897293;29;20638;-67
2023/07/22 04:45:09;;;;;;;14.43;4.13;;;14.00;99.90;;;;;;4887141;29;20551;-68
2023/07/22 04:47:36;;;;;;;4.90;4.07;;;14.20;99.90;;;;;;4894972;29;20588;-68
2023/07/22 04:50:06;;;;;;;6.10;3.93;;;14.50;99.90;;;;;;4903698;29;20553;-68
2023/07/22 04:52:33;;;;;;;20.60;5.13;;;14.80;99.90;;;;;;4891885;29;20565;-68
2023/07/22 04:54:59;;;;;;;3.70;3.40;;;14.80;99.90;;;;;;4907922;29;20549;-68
2023/07/22 04:57:26;;;;;;;15.43;4.67;;;14.70;99.90;;;;;;4904132;29;20511;-68
2023/07/22 04:59:53;;;;;;;3.60;2.30;;;14.70;99.90;;;;;;4901804;29;20583;-68
2023/07/22 05:02:20;;;;;;;3.60;3.37;;;14.80;99.90;;;;;;4896142;29;20793;-68
2023/07/22 05:04:46;;;;;;;6.70;4.40;;;14.80;99.90;;;;;;4907468;29;20504;-68
2023/07/22 05:07:15;;;;;;;5.77;3.73;;;15.20;99.90;;;;;;4899826;29;20894;-69
2023/07/22 05:09:42;;;;;;;9.10;4.77;;;15.70;99.90;;;;;;4894868;29;20850;-68
2023/07/22 05:12:09;;;;;;;5.37;3.37;;;16.00;99.90;;;;;;4896148;29;20471;-68
2023/07/22 05:14:35;;;;;;;5.50;4.00;;;15.80;99.90;;;;;;4886570;29;20560;-68
2023/07/22 05:17:02;;;;;;;4.50;2.67;;;16.00;99.90;;;;;;4904596;29;20483;-68
2023/07/22 05:19:29;;;;;;;2.90;2.17;;;16.20;99.90;;;;;;4898579;29;20515;-68
2023/07/22 05:21:56;;;;;;;2.90;2.73;;;16.30;99.90;;;;;;4905042;29;20502;-68
2023/07/22 05:24:24;;;;;;;3.83;3.53;;;16.60;99.90;;;;;;4902665;29;21001;-69
2023/07/22 05:26:50;;;;;;;2.17;2.17;;;16.50;99.90;;;;;;4907411;29;20791;-68
2023/07/22 05:29:18;;;;;;;2.50;2.30;;;16.40;99.90;;;;;;4903572;29;21032;-68
2023/07/22 05:31:46;;;;;;;2.53;2.40;;;16.30;99.90;;;;;;4894569;29;20476;-68
2023/07/22 05:34:13;;;;;;;3.00;2.80;;;16.20;99.90;;;;;;4895646;29;20498;-68
2023/07/22 05:36:40;;;;;;;2.87;2.47;;;16.00;99.90;;;;;;4885341;29;20550;-68
2023/07/22 05:39:07;;;;;;;1.93;1.83;;;15.90;99.90;;;;;;4887618;29;20499;-68
2023/07/22 05:41:35;;;;;;;3.13;2.93;;;15.90;99.90;;;;;;4893929;29;20495;-68
2023/07/22 05:44:02;;;;;;;2.60;2.50;;;16.00;99.90;;;;;;4893814;29;20480;-69
2023/07/22 05:46:29;;;;;;;4.20;2.57;;;16.10;99.90;;;;;;4895012;29;20480;-68
2023/07/22 05:48:56;;;;;;;3.90;2.50;;;16.00;99.90;;;;;;4898056;29;20487;-69
2023/07/22 05:51:22;;;;;;;2.57;2.37;;;15.90;99.90;;;;;;4889229;29;20489;-69
2023/07/22 05:53:49;;;;;;;2.33;2.10;;;15.90;99.90;;;;;;4887740;29;20467;-69
2023/07/22 05:56:16;;;;;;;2.70;2.60;;;15.80;99.90;;;;;;4901406;29;20474;-69
2023/07/22 05:58:44;;;;;;;2.97;2.87;;;15.70;99.90;;;;;;4902555;29;20482;-68
2023/07/22 06:01:11;;;;;;;3.43;2.47;;;15.90;99.90;;;;;;4891560;29;21041;-69
2023/07/22 06:03:38;;;;;;;2.83;2.63;;;16.50;99.90;;;;;;4888384;29;20498;-69
2023/07/22 06:06:05;;;;;;;2.60;2.50;;;17.00;99.90;;;;;;4899692;29;20470;-69
2023/07/22 06:08:31;;;;;;;3.47;3.20;;;17.40;99.90;;;;;;4905243;29;20500;-68
2023/07/22 06:10:58;;;;;;;2.40;2.27;;;17.90;99.90;;;;;;4902504;29;20499;-69
2023/07/22 06:13:25;;;;;;;2.63;2.53;;;18.20;99.90;;;;;;4894598;29;20849;-68
2023/07/22 06:15:53;;;;;;;2.33;2.33;;;18.60;99.90;;;;;;4901431;29;20971;-67
2023/07/22 06:18:20;;;;;;;1.50;1.40;;;18.90;99.90;;;;;;4899809;29;20496;-68
2023/07/22 06:20:47;;;;;;;1.50;1.50;;;19.40;99.90;;;;;;4898171;29;21016;-70
2023/07/22 06:23:14;;;;;;;2.53;2.43;;;19.60;99.90;;;;;;4900920;29;21026;-67
2023/07/22 06:25:41;;;;;;;1.80;1.70;;;19.70;99.90;;;;;;4903478;29;20476;-67
2023/07/22 06:28:07;;;;;;;2.33;2.10;;;20.20;99.90;;;;;;4900384;29;20596;-67
2023/07/22 06:30:34;;;;;;;1.83;1.70;;;20.50;99.90;;;;;;4902346;29;20498;-69
2023/07/22 06:33:02;;;;;;;2.07;1.87;;;20.70;99.90;;;;;;4892696;29;20515;-69
2023/07/22 06:35:29;;;;;;;1.93;1.90;;;21.10;99.90;;;;;;4902235;29;20466;-69
2023/07/22 06:37:56;;;;;;;1.90;1.80;;;21.40;99.90;;;;;;4897701;29;20464;-69
2023/07/22 06:40:23;;;;;;;2.40;2.30;;;21.80;99.90;;;;;;4892031;29;20565;-68
2023/07/22 06:42:50;;;;;;;1.80;1.80;;;21.70;99.90;;;;;;4895307;29;20471;-69
2023/07/22 06:45:17;;;;;;;1.93;1.93;;;21.70;99.90;;;;;;4890476;29;20474;-68
2023/07/22 06:47:44;;;;;;;1.30;1.30;;;21.90;99.90;;;;;;4901055;29;20572;-68
2023/07/22 06:50:12;;;;;;;1.80;1.70;;;21.70;99.90;;;;;;4911514;29;20830;-68
2023/07/22 06:52:39;;;;;;;2.67;2.57;;;21.70;99.90;;;;;;4897364;29;20484;-68
2023/07/22 06:55:06;;;;;;;2.00;2.00;;;21.80;99.90;;;;;;4903529;29;20633;-69
2023/07/22 06:57:34;;;;;;;2.33;2.23;;;22.00;99.90;;;;;;4883446;29;20472;-69
2023/07/22 07:00:01;;;;;;;1.37;1.37;;;21.90;99.90;;;;;;4885562;29;21038;-68
2023/07/22 07:02:27;;;;;;;1.60;1.60;;;21.90;99.90;;;;;;4892704;29;20475;-69
2023/07/22 07:04:54;;;;;;;1.40;1.40;;;22.20;99.90;;;;;;4876438;29;20475;-68
2023/07/22 07:07:22;;;;;;;1.83;1.73;;;22.40;99.90;;;;;;4876225;29;20520;-68
2023/07/22 07:09:50;;;;;;;1.80;1.70;;;22.70;99.90;;;;;;4879884;29;20538;-69
2023/07/22 07:12:17;;;;;;;1.00;1.00;;;22.90;99.90;;;;;;4888824;29;20811;-68
2023/07/22 07:14:44;;;;;;;1.43;1.43;;;22.90;99.90;;;;;;4897586;29;20478;-68
2023/07/22 07:17:10;;;;;;;1.53;1.53;;;22.60;99.90;;;;;;4894325;29;20521;-68
2023/07/22 07:19:37;;;;;;;1.53;1.43;;;22.50;99.90;;;;;;4891543;29;20502;-69
2023/07/22 07:22:04;;;;;;;0.90;0.90;;;22.20;99.90;;;;;;4904612;29;20982;-70
2023/07/22 07:24:32;;;;;;;2.03;1.83;;;22.40;99.90;;;;;;4897560;29;20470;-69
2023/07/22 07:26:59;;;;;;;1.17;1.17;;;22.80;99.90;;;;;;4895126;29;20467;-68
2023/07/22 07:29:26;;;;;;;1.33;1.33;;;22.40;99.90;;;;;;4898467;29;20513;-68
2023/07/22 07:31:53;;;;;;;1.63;1.60;;;21.60;99.90;;;;;;4880392;29;20498;-69
2023/07/22 07:34:19;;;;;;;3.10;1.63;;;21.70;99.90;;;;;;4879559;29;20475;-68
2023/07/22 07:36:46;;;;;;;1.10;1.10;;;22.50;99.90;;;;;;4885401;29;20470;-68
2023/07/22 07:39:13;;;;;;;1.43;1.43;;;22.90;99.90;;;;;;4898349;29;20467;-68
2023/07/22 07:41:41;;;;;;;1.43;1.43;;;23.30;99.90;;;;;;4897847;29;20495;-68
2023/07/22 07:44:07;;;;;;;1.20;1.13;;;23.50;99.90;;;;;;4898165;29;20484;-68
2023/07/22 07:46:35;;;;;;;1.17;1.17;;;23.70;99.90;;;;;;4897845;29;20910;-70
2023/07/22 07:49:03;;;;;;;2.40;1.67;;;23.40;99.90;;;;;;4898858;29;20523;-69
2023/07/22 07:51:31;;;;;;;1.43;1.10;;;23.30;99.90;;;;;;4898169;29;20498;-68
2023/07/22 07:54:00;;;;;;;0.97;0.97;;;23.70;99.90;;;;;;4891892;29;20584;-68
2023/07/22 07:56:27;;;;;;;1.23;1.13;;;23.60;99.90;;;;;;4900233;29;20474;-69
2023/07/22 07:58:55;;;;;;;1.10;1.10;;;23.20;99.90;;;;;;4888868;29;20888;-68
2023/07/22 08:01:22;;;;;;;1.10;1.10;;;23.10;99.90;;;;;;4890368;29;21058;-68
2023/07/22 08:03:49;;;;;;;0.90;0.90;;;22.60;99.90;;;;;;4898063;29;20485;-68
2023/07/22 08:06:16;;;;;;;0.93;0.93;;;22.60;99.90;;;;;;4904368;29;20554;-68
2023/07/22 08:08:43;;;;;;;1.07;1.07;;;22.60;99.90;;;;;;4890198;29;20490;-68
2023/07/22 08:11:12;;;;;;;0.83;0.83;;;22.80;99.90;;;;;;4896127;29;20499;-68
2023/07/22 08:13:40;;;;;;;1.07;1.07;;;22.30;99.90;;;;;;4908311;29;20524;-69
2023/07/22 08:16:10;;;;;;;0.83;0.83;;;21.70;99.90;;;;;;4897187;29;20880;-68
2023/07/22 08:18:37;;;;;;;1.00;1.00;;;21.20;99.90;;;;;;4897022;29;20468;-68
2023/07/22 08:21:06;;;;;;;0.73;0.67;;;21.00;99.90;;;;;;4895548;29;20994;-68
2023/07/22 08:23:32;;;;;;;0.80;0.80;;;20.80;99.90;;;;;;4893684;29;20498;-68
2023/07/22 08:25:59;;;;;;;1.20;0.83;;;20.80;99.90;;;;;;4888965;29;20463;-68
2023/07/22 08:28:26;;;;;;;0.83;0.83;;;20.70;99.90;;;;;;4897166;29;20549;-68
2023/07/22 08:30:55;;;;;;;0.93;0.93;;;20.60;99.90;;;;;;4880931;29;20495;-67
2023/07/22 08:33:23;;;;;;;0.70;0.70;;;20.70;99.90;;;;;;4895792;29;20465;-69
2023/07/22 08:35:52;;;;;;;1.50;0.70;;;20.60;99.90;;;;;;4902448;29;20633;-68
2023/07/22 08:38:18;;;;;;;0.87;0.87;;;20.30;99.90;;;;;;4896986;29;20972;-70
2023/07/22 08:40:48;;;;;;;0.40;0.40;;;20.20;99.90;;;;;;4897892;29;20871;-67
2023/07/22 08:43:16;;;;;;;0.77;0.77;;;20.00;99.90;;;;;;4889080;29;20463;-66
2023/07/22 08:45:44;;;;;;;0.50;0.50;;;19.90;99.90;;;;;;4891619;29;20518;-67
2023/07/22 08:48:12;;;;;;;0.47;0.47;;;19.90;99.90;;;;;;4892343;29;20464;-67
2023/07/22 08:50:46;;;;;;;0.63;0.63;;;20.00;99.90;;;;;;4884732;29;20500;-65
2023/07/22 08:53:13;;;;;;;0.60;0.60;;;20.00;99.90;;;;;;4888711;29;20527;-66
2023/07/22 08:55:40;;;;;;;0.53;0.53;;;20.10;99.90;;;;;;4895330;29;20478;-66
2023/07/22 08:58:09;;;;;;;0.83;0.60;;;19.80;99.90;;;;;;4903078;29;20482;-65
2023/07/22 09:00:35;;;;;;;0.50;0.50;;;20.10;99.90;;;;;;4889709;29;20565;-65
2023/07/22 09:03:03;;;;;;;0.60;0.60;;;19.90;99.90;;;;;;4906967;29;20844;-65
2023/07/22 09:05:31;;;;;;;0.93;0.93;;;19.80;99.90;;;;;;4897138;29;20975;-66
2023/07/22 09:08:00;;;;;;;0.80;0.80;;;19.90;99.90;;;;;;4907096;29;20864;-65
2023/07/22 09:10:28;;;;;;;0.60;0.60;;;19.70;99.90;;;;;;4910470;29;20506;-66
2023/07/22 09:12:56;;;;;;;0.53;0.53;;;20.10;99.90;;;;;;4890628;29;20474;-66
2023/07/22 09:15:23;;;;;;;0.50;0.50;;;19.90;99.90;;;;;;4892995;29;20530;-66
2023/07/22 09:17:50;;;;;;;2.07;0.53;;;19.90;99.90;;;;;;4891735;29;20474;-65
2023/07/22 09:20:17;;;;;;;0.80;0.80;;;18.80;99.90;;;;;;4897471;29;20504;-68
2023/07/22 09:22:45;;;;;;;0.37;0.37;;;19.80;99.90;;;;;;4911571;29;20470;-65
2023/07/22 09:25:19;;;;;;;0.57;0.57;;;19.90;99.90;;;;;;4898081;29;20545;-65
2023/07/22 09:27:46;;;;;;;0.90;0.90;;;19.90;99.90;;;;;;4899803;29;20495;-67
2023/07/22 09:30:27;;;;;;;0.87;0.60;;;19.80;99.90;;;;;;4890093;29;20867;-65
2023/07/22 09:32:55;;;;;;;0.40;0.40;;;19.70;99.90;;;;;;4889005;29;20475;-65
2023/07/22 09:35:23;;;;;;;0.40;0.40;;;19.70;99.90;;;;;;4894455;29;20476;-66
2023/07/22 09:37:49;;;;;;;0.40;0.40;;;19.70;99.90;;;;;;4881561;29;20809;-67
2023/07/22 09:40:19;;;;;;;0.40;0.40;;;19.50;99.90;;;;;;4891878;29;20497;-65
2023/07/22 09:42:51;;;;;;;1.03;0.70;;;19.70;99.90;;;;;;4901622;29;20891;-66
2023/07/22 09:45:19;;;;;;;0.40;0.40;;;19.60;99.90;;;;;;4927771;23;20464;-68
2023/07/22 09:47:47;;;;;;;0.50;0.50;;;19.70;99.90;;;;;;4908977;29;20476;-68
2023/07/22 09:50:16;;;;;;;0.20;0.20;;;19.80;99.90;;;;;;4926445;29;20499;-71
2023/07/22 09:52:47;;;;;;;0.50;0.30;;;20.00;99.90;;;;;;4929823;29;20476;-71
2023/07/22 09:55:16;;;;;;;0.60;0.60;;;20.20;99.90;;;;;;4934355;29;20609;-71
2023/07/22 09:57:46;;;;;;;0.60;0.60;;;20.40;99.90;;;;;;4918267;29;20968;-71
2023/07/22 10:00:15;;;;;;;0.87;0.87;;;20.40;99.90;;;;;;4910338;29;20893;-72
2023/07/22 10:02:43;;;;;;;0.60;0.60;;;20.40;99.90;;;;;;4905957;29;20517;-71
2023/07/22 10:05:13;;;;;;;0.50;0.50;;;20.50;99.90;;;;;;4899760;29;20665;-71
2023/07/22 10:07:44;;;;;;;0.90;0.67;;;20.60;99.90;;;;;;4898043;29;20494;-71
2023/07/22 10:10:12;;;;;;;14.50;0.70;;;20.60;99.90;;;;;;4897976;29;20510;-72
2023/07/22 10:12:41;;;;;;;0.33;0.33;;;20.50;99.90;;;;;;4897385;29;20538;-72
2023/07/22 10:15:11;;;;;;;1.30;0.47;;;20.60;99.90;;;;;;4897647;29;20510;-71
2023/07/22 10:17:38;;;;;;;0.47;0.47;;;20.70;99.90;;;;;;4896348;29;20581;-71
2023/07/22 10:20:07;;;;;;;0.50;0.50;;;20.70;99.90;;;;;;4897207;29;20553;-71
2023/07/22 10:22:36;;;;;;;0.70;0.40;;;20.90;99.90;;;;;;4896445;29;20972;-71
2023/07/22 10:25:06;;;;;;;0.30;0.30;;;21.20;99.90;;;;;;4896554;29;20549;-71
2023/07/22 10:27:33;;;;;;;0.73;0.73;;;21.20;99.90;;;;;;4896917;29;20551;-71
2023/07/22 10:30:00;;;;;;;0.80;0.80;;;21.00;99.90;;;;;;4897454;29;20504;-71
2023/07/22 10:32:34;;;;;;;0.40;0.40;;;21.00;99.90;;;;;;4895912;29;20593;-71
2023/07/22 10:35:01;;;;;;;0.47;0.47;;;21.00;99.90;;;;;;4895328;29;20475;-71
2023/07/22 10:37:31;;;;;;;0.40;0.40;;;21.00;99.90;;;;;;4895223;29;20557;-69
2023/07/22 10:40:01;;;;;;;0.93;0.50;;;21.20;99.90;;;;;;4896173;29;20588;-68
2023/07/22 10:42:27;;;;;;;0.40;0.40;;;21.30;99.90;;;;;;4895587;29;20468;-71
2023/07/22 10:44:54;;;;;;;0.77;0.77;;;21.30;99.90;;;;;;4895179;29;20814;-71
2023/07/22 10:47:36;;;;;;;0.97;0.97;;;21.30;99.90;;;;;;4894810;29;20538;-71
2023/07/22 10:50:09;;;;;;;1.07;0.97;;;21.20;99.90;;;;;;4895466;29;20839;-71
2023/07/22 10:52:41;;;;;;;0.67;0.67;;;21.00;99.90;;;;;;4895110;29;20990;-71
2023/07/22 10:55:15;;;;;;;0.40;0.40;;;20.90;99.90;;;;;;4894939;29;20844;-71
2023/07/22 10:57:50;;;;;;;0.70;0.70;;;20.90;99.90;;;;;;4894899;29;20471;-71
2023/07/22 11:00:20;;;;;;;1.00;0.87;;;20.80;99.90;;;;;;4895239;29;20470;-71
2023/07/22 11:03:08;;;;;;;0.60;0.60;;;20.90;99.90;;;;;;4894444;29;20565;-71
2023/07/22 11:05:49;;;;;;;0.80;0.80;;;21.10;99.90;;;;;;4894704;29;20492;-71
2023/07/22 11:08:16;;;;;;;0.60;0.60;;;21.20;99.90;;;;;;4894937;29;20565;-71
2023/07/22 11:10:54;;;;;;;2.50;1.30;;;21.30;99.90;;;;;;4894926;29;20493;-71
2023/07/22 11:13:28;;;;;;;0.97;0.97;;;21.30;99.90;;;;;;4895290;29;20500;-71
2023/07/22 11:15:58;;;;;;;0.90;0.90;;;21.30;99.90;;;;;;4894868;29;20577;-71
2023/07/22 11:18:38;;;;;;;0.80;0.80;;;21.50;99.90;;;;;;4894104;29;21011;-71
2023/07/22 11:21:09;;;;;;;0.77;0.77;;;21.50;99.90;;;;;;4894724;29;20793;-71
2023/07/22 11:23:36;;;;;;;1.07;1.07;;;21.50;99.90;;;;;;4894628;29;20471;-71
2023/07/22 11:26:03;;;;;;;0.83;0.83;;;21.50;99.90;;;;;;4894493;29;20598;-71
2023/07/22 11:28:30;;;;;;;0.87;0.87;;;21.50;99.90;;;;;;4894334;29;20556;-71
2023/07/22 11:30:58;;;;;;;0.97;0.97;;;21.60;99.90;;;;;;4894454;29;20963;-71
2023/07/22 11:33:25;;;;;;;1.20;1.20;;;21.60;99.90;;;;;;4893945;29;20473;-71
2023/07/22 11:35:53;;;;;;;1.07;1.07;;;21.50;99.90;;;;;;4894109;29;20978;-71
2023/07/22 11:38:20;;;;;;;1.13;1.03;;;21.20;99.90;;;;;;4893865;29;20936;-71
2023/07/22 11:40:47;;;;;;;1.70;1.10;;;21.10;99.90;;;;;;4899232;29;20470;-71
2023/07/22 11:43:15;;;;;;;1.20;1.20;;;21.10;99.90;;;;;;4913147;29;20466;-71
2023/07/22 11:45:42;;;;;;;1.43;1.37;;;21.10;99.90;;;;;;4903572;29;20499;-72
2023/07/22 11:48:11;;;;;;;1.47;1.47;;;21.40;99.90;;;;;;4893308;29;20504;-72
2023/07/22 11:50:38;;;;;;;1.60;1.60;;;21.80;99.90;;;;;;4894167;29;20496;-72
2023/07/22 11:53:06;;;;;;;1.73;1.73;;;22.00;99.90;;;;;;4893734;29;20957;-72
2023/07/22 11:55:36;;;;;;;4.63;1.30;;;22.20;99.90;;;;;;4896722;29;20517;-72
2023/07/22 11:58:03;;;;;;;1.07;1.07;;;22.20;99.90;;;;;;4902957;29;20469;-72
2023/07/22 12:00:30;;;;;;;1.57;1.57;;;22.20;99.90;;;;;;4916367;29;20468;-72
2023/07/22 12:02:58;;;;;;;0.97;0.97;;;22.30;99.90;;;;;;4904296;29;20476;-72
2023/07/22 12:05:25;;;;;;;1.00;1.00;;;22.20;99.90;;;;;;4897397;29;20494;-72
2023/07/22 12:07:52;;;;;;;1.73;1.63;;;21.90;99.90;;;;;;4897208;29;20473;-72
2023/07/22 12:10:20;;;;;;;3.77;1.23;;;21.90;99.90;;;;;;4897335;29;20488;-72
2023/07/22 12:12:49;;;;;;;1.60;1.60;;;21.90;99.90;;;;;;4897314;29;20474;-72
2023/07/22 12:15:16;;;;;;;1.20;1.20;;;21.80;99.90;;;;;;4897225;29;20851;-71
2023/07/22 12:17:47;;;;;;;1.03;1.03;;;21.90;99.90;;;;;;4896363;29;20571;-71
2023/07/22 12:20:15;;;;;;;1.50;1.40;;;21.90;99.90;;;;;;4897121;29;20469;-72
2023/07/22 12:22:42;;;;;;;1.73;1.73;;;21.80;99.90;;;;;;4897148;29;20465;-72
2023/07/22 12:25:09;;;;;;;1.37;1.37;;;21.80;99.90;;;;;;4897733;29;20473;-71
2023/07/22 12:27:37;;;;;;;1.70;1.60;;;22.00;99.90;;;;;;4896780;29;20473;-72
2023/07/22 12:30:05;;;;;;;1.17;1.17;;;22.40;99.90;;;;;;4896835;29;21004;-72
2023/07/22 12:32:32;;;;;;;1.20;1.20;;;22.50;99.90;;;;;;4896097;29;20474;-72
2023/07/22 12:34:59;;;;;;;1.17;1.17;;;22.50;99.90;;;;;;4896918;29;20479;-72
2023/07/22 12:37:26;;;;;;;2.30;2.00;;;22.40;99.90;;;;;;4896639;29;20475;-72
2023/07/22 12:39:52;;;;;;;1.70;1.67;;;22.40;99.90;;;;;;4896698;29;20498;-72
2023/07/22 12:42:19;;;;;;;1.63;1.53;;;22.30;99.90;;;;;;4896611;29;20470;-72
2023/07/22 12:44:47;;;;;;;1.93;1.83;;;22.20;99.90;;;;;;4896552;29;20469;-72
2023/07/22 12:47:14;;;;;;;1.40;1.30;;;22.30;99.90;;;;;;4895938;29;20493;-72